CGJBF CYQB-CYVP
Flight info
| Callsign | CGJBF |
|---|---|
| Flight time | 2h 20m |
| Altitude | 29000 |
| Route | GADAL Q910 YBC DCT ARAME DCT 54N068W 56N068W |
| Aircraft | TBM8/L-SDFGRWY/S |
Departure
| Time | 2026-05-05 21:10 |
|---|---|
| Airport | Quebec Jean Lesage International Airport (CYQB) |
Arrival
| Time | 2026-05-05 23:30 |
|---|---|
| Airport | Kuujjuaq Airport (CYVP) |
| Time | Latitude | Longitude | Altitude | Speed | Heading |
|---|---|---|---|---|---|
| 2026-05-05 21:02 | 46.79044 | -71.37390 | 238 ft | 0 kts | 319° |
| 2026-05-05 21:05 | 46.79099 | -71.37443 | 238 ft | 17 kts | 323° |
| 2026-05-05 21:05 | 46.79171 | -71.37541 | 238 ft | 15 kts | 318° |
| 2026-05-05 21:06 | 46.79150 | -71.37624 | 238 ft | 12 kts | 224° |
| 2026-05-05 21:06 | 46.79084 | -71.37718 | 238 ft | 11 kts | 225° |
| 2026-05-05 21:06 | 46.79039 | -71.37783 | 238 ft | 8 kts | 224° |
| 2026-05-05 21:06 | 46.79009 | -71.37827 | 238 ft | 5 kts | 225° |
| 2026-05-05 21:07 | 46.78969 | -71.37886 | 238 ft | 13 kts | 224° |
| 2026-05-05 21:07 | 46.78915 | -71.37999 | 238 ft | 17 kts | 272° |
| 2026-05-05 21:07 | 46.78877 | -71.38093 | 238 ft | 16 kts | 185° |
| 2026-05-05 21:07 | 46.78784 | -71.38110 | 238 ft | 0 kts | 187° |
| 2026-05-05 21:08 | 46.78714 | -71.38156 | 237 ft | 15 kts | 248° |
| 2026-05-05 21:08 | 46.78718 | -71.38265 | 237 ft | 15 kts | 277° |
| 2026-05-05 21:09 | 46.78756 | -71.38669 | 235 ft | 66 kts | 277° |
| 2026-05-05 21:09 | 46.78880 | -71.39481 | 366 ft | 91 kts | 274° |
| 2026-05-05 21:09 | 46.79051 | -71.40457 | 542 ft | 110 kts | 273° |
| 2026-05-05 21:09 | 46.79211 | -71.41659 | 775 ft | 130 kts | 275° |
| 2026-05-05 21:10 | 46.78938 | -71.42792 | 1249 ft | 123 kts | 212° |
| 2026-05-05 21:10 | 46.78121 | -71.42951 | 1773 ft | 126 kts | 170° |
| 2026-05-05 21:10 | 46.77634 | -71.41833 | 2254 ft | 154 kts | 101° |
| 2026-05-05 21:10 | 46.77608 | -71.40232 | 2606 ft | 161 kts | 99° |
| 2026-05-05 21:11 | 46.77597 | -71.38583 | 2992 ft | 164 kts | 99° |
| 2026-05-05 21:11 | 46.77597 | -71.36876 | 3513 ft | 170 kts | 96° |
| 2026-05-05 21:11 | 46.77577 | -71.35146 | 4145 ft | 168 kts | 109° |
| 2026-05-05 21:11 | 46.77346 | -71.33495 | 4785 ft | 157 kts | 142° |
| 2026-05-05 21:12 | 46.76919 | -71.31987 | 5628 ft | 166 kts | 107° |
| 2026-05-05 21:12 | 46.76810 | -71.30368 | 6339 ft | 160 kts | 99° |
| 2026-05-05 21:12 | 46.76888 | -71.28730 | 6688 ft | 168 kts | 95° |
| 2026-05-05 21:12 | 46.76902 | -71.26957 | 6930 ft | 181 kts | 96° |
| 2026-05-05 21:13 | 46.76889 | -71.25093 | 7264 ft | 185 kts | 96° |
| 2026-05-05 21:13 | 46.76988 | -71.23206 | 7636 ft | 194 kts | 69° |
| 2026-05-05 21:13 | 46.77506 | -71.22169 | 7860 ft | 189 kts | 24° |
| 2026-05-05 21:13 | 46.78653 | -71.21328 | 8223 ft | 185 kts | 9° |
| 2026-05-05 21:14 | 46.79844 | -71.20630 | 8620 ft | 183 kts | 3° |
| 2026-05-05 21:14 | 46.81058 | -71.20075 | 9016 ft | 183 kts | 358° |
| 2026-05-05 21:14 | 46.82285 | -71.19572 | 9418 ft | 184 kts | 359° |
| 2026-05-05 21:14 | 46.83520 | -71.19056 | 9781 ft | 186 kts | 358° |
| 2026-05-05 21:15 | 46.84765 | -71.18531 | 10151 ft | 187 kts | 359° |
| 2026-05-05 21:15 | 46.86023 | -71.18002 | 10509 ft | 189 kts | 359° |
| 2026-05-05 21:15 | 46.87291 | -71.17476 | 10874 ft | 191 kts | 359° |
| 2026-05-05 21:15 | 46.88560 | -71.16946 | 11224 ft | 193 kts | 359° |
| 2026-05-05 21:16 | 46.89854 | -71.16397 | 11581 ft | 194 kts | 360° |
| 2026-05-05 21:16 | 46.91158 | -71.15844 | 11949 ft | 196 kts | 360° |
| 2026-05-05 21:16 | 46.92476 | -71.15286 | 12302 ft | 198 kts | 360° |
| 2026-05-05 21:16 | 46.93805 | -71.14723 | 12650 ft | 200 kts | 360° |
| 2026-05-05 21:17 | 46.95144 | -71.14157 | 12988 ft | 202 kts | 0° |
| 2026-05-05 21:17 | 46.96498 | -71.13582 | 13339 ft | 203 kts | 0° |
| 2026-05-05 21:17 | 46.97859 | -71.13003 | 13651 ft | 204 kts | 0° |
| 2026-05-05 21:17 | 46.99234 | -71.12421 | 13953 ft | 207 kts | 0° |
| 2026-05-05 21:18 | 47.00622 | -71.11834 | 14293 ft | 209 kts | 1° |
| 2026-05-05 21:18 | 47.02011 | -71.11224 | 14615 ft | 209 kts | 0° |
| 2026-05-05 21:18 | 47.03406 | -71.10632 | 14951 ft | 209 kts | 0° |
| 2026-05-05 21:18 | 47.04813 | -71.10039 | 15253 ft | 211 kts | 0° |
| 2026-05-05 21:19 | 47.06226 | -71.09449 | 15568 ft | 212 kts | 0° |
| 2026-05-05 21:19 | 47.07651 | -71.08846 | 15915 ft | 215 kts | 360° |
| 2026-05-05 21:19 | 47.09089 | -71.08163 | 16188 ft | 224 kts | 11° |
| 2026-05-05 21:19 | 47.10436 | -71.06905 | 16478 ft | 236 kts | 35° |
| 2026-05-05 21:20 | 47.11588 | -71.05162 | 16792 ft | 238 kts | 40° |
| 2026-05-05 21:20 | 47.12766 | -71.03444 | 17055 ft | 241 kts | 39° |
| 2026-05-05 21:20 | 47.13957 | -71.01713 | 17372 ft | 241 kts | 38° |
| 2026-05-05 21:20 | 47.15151 | -70.99982 | 17685 ft | 242 kts | 38° |
| 2026-05-05 21:21 | 47.16349 | -70.98242 | 17979 ft | 243 kts | 39° |
| 2026-05-05 21:21 | 47.17550 | -70.96487 | 18249 ft | 244 kts | 39° |
| 2026-05-05 21:21 | 47.18749 | -70.94720 | 18498 ft | 245 kts | 39° |
| 2026-05-05 21:21 | 47.19964 | -70.92957 | 18763 ft | 246 kts | 38° |
| 2026-05-05 21:22 | 47.21198 | -70.91200 | 19016 ft | 247 kts | 38° |
| 2026-05-05 21:22 | 47.22427 | -70.89430 | 19278 ft | 248 kts | 38° |
| 2026-05-05 21:22 | 47.23654 | -70.87634 | 19525 ft | 250 kts | 39° |
| 2026-05-05 21:22 | 47.24875 | -70.85814 | 19755 ft | 250 kts | 39° |
| 2026-05-05 21:23 | 47.26113 | -70.84008 | 20010 ft | 251 kts | 38° |
| 2026-05-05 21:23 | 47.27362 | -70.82194 | 20270 ft | 252 kts | 38° |
| 2026-05-05 21:23 | 47.28611 | -70.80366 | 20512 ft | 254 kts | 39° |
| 2026-05-05 21:23 | 47.29862 | -70.78522 | 20772 ft | 255 kts | 39° |
| 2026-05-05 21:24 | 47.31113 | -70.76670 | 20996 ft | 255 kts | 39° |
| 2026-05-05 21:24 | 47.32373 | -70.74809 | 21215 ft | 257 kts | 39° |
| 2026-05-05 21:24 | 47.33633 | -70.72931 | 21480 ft | 258 kts | 39° |
| 2026-05-05 21:24 | 47.34901 | -70.71055 | 21703 ft | 259 kts | 39° |
| 2026-05-05 21:25 | 47.36159 | -70.69194 | 21946 ft | 260 kts | 39° |
| 2026-05-05 21:25 | 47.37436 | -70.67309 | 22165 ft | 261 kts | 39° |
| 2026-05-05 21:25 | 47.38719 | -70.65410 | 22384 ft | 262 kts | 39° |
| 2026-05-05 21:25 | 47.40004 | -70.63496 | 22613 ft | 263 kts | 39° |
| 2026-05-05 21:26 | 47.41294 | -70.61581 | 22826 ft | 264 kts | 39° |
| 2026-05-05 21:26 | 47.42584 | -70.59660 | 23098 ft | 263 kts | 40° |
| 2026-05-05 21:26 | 47.43878 | -70.57735 | 23273 ft | 265 kts | 39° |
| 2026-05-05 21:26 | 47.45188 | -70.55787 | 23425 ft | 268 kts | 40° |
| 2026-05-05 21:27 | 47.46501 | -70.53826 | 23617 ft | 269 kts | 40° |
| 2026-05-05 21:27 | 47.47819 | -70.51863 | 23804 ft | 269 kts | 40° |
| 2026-05-05 21:27 | 47.49140 | -70.49895 | 24007 ft | 270 kts | 39° |
| 2026-05-05 21:27 | 47.50468 | -70.47921 | 24231 ft | 270 kts | 38° |
| 2026-05-05 21:28 | 47.51843 | -70.46025 | 24434 ft | 270 kts | 35° |
| 2026-05-05 21:28 | 47.53249 | -70.44183 | 24637 ft | 270 kts | 34° |
| 2026-05-05 21:28 | 47.54664 | -70.42349 | 24842 ft | 271 kts | 34° |
| 2026-05-05 21:28 | 47.56075 | -70.40514 | 25039 ft | 271 kts | 34° |
| 2026-05-05 21:29 | 47.57485 | -70.38663 | 25228 ft | 270 kts | 34° |
| 2026-05-05 21:29 | 47.58893 | -70.36810 | 25422 ft | 271 kts | 34° |
| 2026-05-05 21:29 | 47.60300 | -70.34952 | 25620 ft | 272 kts | 34° |
| 2026-05-05 21:29 | 47.61721 | -70.33071 | 25788 ft | 274 kts | 34° |
| 2026-05-05 21:30 | 47.63143 | -70.31184 | 25950 ft | 275 kts | 34° |
| 2026-05-05 21:30 | 47.64566 | -70.29288 | 26154 ft | 275 kts | 34° |
| 2026-05-05 21:30 | 47.65995 | -70.27383 | 26343 ft | 276 kts | 34° |
| 2026-05-05 21:30 | 47.67423 | -70.25476 | 26533 ft | 276 kts | 34° |
| 2026-05-05 21:31 | 47.68855 | -70.23565 | 26706 ft | 278 kts | 34° |
| 2026-05-05 21:31 | 47.70288 | -70.21648 | 26897 ft | 278 kts | 34° |
| 2026-05-05 21:31 | 47.71725 | -70.19724 | 27094 ft | 278 kts | 34° |
| 2026-05-05 21:31 | 47.73162 | -70.17800 | 27292 ft | 278 kts | 34° |
| 2026-05-05 21:32 | 47.74600 | -70.15872 | 27481 ft | 279 kts | 34° |
| 2026-05-05 21:32 | 47.76046 | -70.13944 | 27682 ft | 279 kts | 34° |
| 2026-05-05 21:32 | 47.77494 | -70.12004 | 27844 ft | 280 kts | 34° |
| 2026-05-05 21:32 | 47.78944 | -70.10049 | 28016 ft | 283 kts | 35° |
| 2026-05-05 21:33 | 47.80401 | -70.08079 | 28194 ft | 284 kts | 35° |
| 2026-05-05 21:33 | 47.81848 | -70.06130 | 28359 ft | 285 kts | 35° |
| 2026-05-05 21:33 | 47.83315 | -70.04147 | 28509 ft | 285 kts | 35° |
| 2026-05-05 21:33 | 47.84802 | -70.02154 | 28580 ft | 291 kts | 35° |
| 2026-05-05 21:34 | 47.86329 | -70.00114 | 28589 ft | 299 kts | 35° |
| 2026-05-05 21:34 | 47.87893 | -69.98017 | 28587 ft | 306 kts | 35° |
| 2026-05-05 21:34 | 47.91139 | -69.93645 | 28591 ft | 320 kts | 36° |
| 2026-05-05 21:35 | 47.94488 | -69.89098 | 28581 ft | 331 kts | 36° |
| 2026-05-05 21:35 | 47.97957 | -69.84401 | 28594 ft | 342 kts | 37° |
| 2026-05-05 21:36 | 48.01531 | -69.79548 | 28576 ft | 351 kts | 37° |
| 2026-05-05 21:36 | 48.05175 | -69.74565 | 28555 ft | 358 kts | 37° |
| 2026-05-05 21:37 | 48.08851 | -69.69553 | 28558 ft | 362 kts | 37° |
| 2026-05-05 21:37 | 48.12593 | -69.64440 | 28558 ft | 366 kts | 37° |
| 2026-05-05 21:38 | 48.16370 | -69.59263 | 28552 ft | 370 kts | 37° |
| 2026-05-05 21:38 | 48.20181 | -69.54030 | 28547 ft | 373 kts | 37° |
| 2026-05-05 21:39 | 48.24010 | -69.48759 | 28546 ft | 375 kts | 37° |
| 2026-05-05 21:39 | 48.27859 | -69.43450 | 28546 ft | 376 kts | 38° |
| 2026-05-05 21:40 | 48.31713 | -69.38123 | 28526 ft | 376 kts | 38° |
| 2026-05-05 21:40 | 48.35562 | -69.32791 | 28538 ft | 377 kts | 37° |
| 2026-05-05 21:41 | 48.39412 | -69.27446 | 28537 ft | 377 kts | 37° |
| 2026-05-05 21:41 | 48.43267 | -69.22082 | 28532 ft | 377 kts | 37° |
| 2026-05-05 21:42 | 48.47128 | -69.16703 | 28532 ft | 378 kts | 37° |
| 2026-05-05 21:42 | 48.50981 | -69.11322 | 28558 ft | 379 kts | 37° |
| 2026-05-05 21:43 | 48.54854 | -69.05903 | 28533 ft | 380 kts | 37° |
| 2026-05-05 21:43 | 48.58733 | -69.00461 | 28528 ft | 381 kts | 37° |
| 2026-05-05 21:44 | 48.62591 | -68.95035 | 28527 ft | 381 kts | 37° |
| 2026-05-05 21:44 | 48.66472 | -68.89567 | 28527 ft | 382 kts | 37° |
| 2026-05-05 21:45 | 48.70361 | -68.84075 | 28536 ft | 383 kts | 38° |
| 2026-05-05 21:45 | 48.74252 | -68.78568 | 28529 ft | 383 kts | 38° |
| 2026-05-05 21:46 | 48.78132 | -68.73061 | 28527 ft | 383 kts | 38° |
| 2026-05-05 21:46 | 48.82020 | -68.67534 | 28529 ft | 383 kts | 38° |
| 2026-05-05 21:47 | 48.85909 | -68.61995 | 28542 ft | 384 kts | 38° |
| 2026-05-05 21:47 | 48.89808 | -68.56429 | 28551 ft | 385 kts | 38° |
| 2026-05-05 21:48 | 48.93715 | -68.50838 | 28541 ft | 386 kts | 38° |
| 2026-05-05 21:48 | 48.97623 | -68.45230 | 28532 ft | 386 kts | 38° |
| 2026-05-05 21:49 | 49.01530 | -68.39613 | 28534 ft | 386 kts | 38° |
| 2026-05-05 21:49 | 49.05423 | -68.34006 | 28516 ft | 384 kts | 38° |
| 2026-05-05 21:50 | 49.09272 | -68.28446 | 28529 ft | 383 kts | 39° |
| 2026-05-05 21:50 | 49.13300 | -68.23221 | 28551 ft | 374 kts | 22° |
| 2026-05-05 21:51 | 49.15638 | -68.21631 | 28566 ft | 363 kts | 8° |
| 2026-05-05 21:51 | 49.18048 | -68.20632 | 28561 ft | 356 kts | 1° |
| 2026-05-05 21:51 | 49.22880 | -68.19098 | 28548 ft | 354 kts | 359° |
| 2026-05-05 21:52 | 49.30142 | -68.16901 | 28557 ft | 354 kts | 357° |
| 2026-05-05 21:53 | 49.34970 | -68.15321 | 28520 ft | 356 kts | 360° |
| 2026-05-05 21:53 | 49.39793 | -68.13665 | 28541 ft | 355 kts | 359° |
| 2026-05-05 21:54 | 49.44631 | -68.12067 | 28545 ft | 356 kts | 359° |
| 2026-05-05 21:54 | 49.49475 | -68.10448 | 28556 ft | 357 kts | 358° |
| 2026-05-05 21:55 | 49.54337 | -68.08822 | 28538 ft | 358 kts | 358° |
| 2026-05-05 21:55 | 49.59204 | -68.07193 | 28532 ft | 357 kts | 358° |
| 2026-05-05 21:56 | 49.64067 | -68.05563 | 28530 ft | 358 kts | 358° |
| 2026-05-05 21:56 | 49.68932 | -68.03928 | 28524 ft | 358 kts | 358° |
| 2026-05-05 21:57 | 49.73797 | -68.02283 | 28520 ft | 358 kts | 358° |
| 2026-05-05 21:57 | 49.78670 | -68.00642 | 28531 ft | 358 kts | 358° |
| 2026-05-05 21:58 | 49.83516 | -67.99011 | 28536 ft | 359 kts | 358° |
| 2026-05-05 21:58 | 49.88405 | -67.97342 | 28552 ft | 361 kts | 358° |
| 2026-05-05 21:59 | 49.93315 | -67.95685 | 28559 ft | 361 kts | 358° |
| 2026-05-05 21:59 | 49.97436 | -67.94261 | 28521 ft | 362 kts | 359° |
| 2026-05-05 22:00 | 50.02323 | -67.92592 | 28516 ft | 358 kts | 358° |
| 2026-05-05 22:00 | 50.07149 | -67.90958 | 28525 ft | 356 kts | 358° |
| 2026-05-05 22:01 | 50.11987 | -67.89286 | 28524 ft | 355 kts | 358° |
| 2026-05-05 22:01 | 50.16819 | -67.87645 | 28524 ft | 355 kts | 358° |
| 2026-05-05 22:02 | 50.21642 | -67.85975 | 28492 ft | 356 kts | 359° |
| 2026-05-05 22:02 | 50.26451 | -67.84313 | 28523 ft | 354 kts | 358° |
| 2026-05-05 22:03 | 50.31255 | -67.82719 | 28558 ft | 354 kts | 356° |
| 2026-05-05 22:03 | 50.36098 | -67.81055 | 28521 ft | 357 kts | 358° |
| 2026-05-05 22:04 | 50.40946 | -67.79379 | 28530 ft | 358 kts | 359° |
| 2026-05-05 22:04 | 50.45806 | -67.77663 | 28522 ft | 357 kts | 358° |
| 2026-05-05 22:05 | 50.50635 | -67.75938 | 28523 ft | 358 kts | 358° |
| 2026-05-05 22:05 | 50.55510 | -67.74257 | 28517 ft | 358 kts | 358° |
| 2026-05-05 22:06 | 50.60377 | -67.72565 | 28533 ft | 359 kts | 358° |
| 2026-05-05 22:06 | 50.65275 | -67.70852 | 28549 ft | 362 kts | 359° |
| 2026-05-05 22:07 | 50.70193 | -67.69124 | 28532 ft | 362 kts | 359° |
| 2026-05-05 22:07 | 50.75113 | -67.67396 | 28534 ft | 362 kts | 359° |
| 2026-05-05 22:08 | 50.80037 | -67.65658 | 28550 ft | 363 kts | 359° |
| 2026-05-05 22:08 | 50.84963 | -67.63918 | 28532 ft | 363 kts | 359° |
| 2026-05-05 22:09 | 50.89890 | -67.62173 | 28527 ft | 363 kts | 359° |
| 2026-05-05 22:09 | 50.94825 | -67.60421 | 28548 ft | 364 kts | 359° |
| 2026-05-05 22:10 | 50.99768 | -67.58669 | 28534 ft | 365 kts | 359° |
| 2026-05-05 22:10 | 51.04727 | -67.56902 | 28525 ft | 365 kts | 359° |
| 2026-05-05 22:11 | 51.09656 | -67.55142 | 28525 ft | 365 kts | 360° |
| 2026-05-05 22:11 | 51.14613 | -67.53368 | 28538 ft | 365 kts | 360° |
| 2026-05-05 22:12 | 51.19567 | -67.51592 | 28531 ft | 365 kts | 359° |
| 2026-05-05 22:12 | 51.24513 | -67.49813 | 28541 ft | 365 kts | 360° |
| 2026-05-05 22:13 | 51.29471 | -67.48029 | 28546 ft | 365 kts | 360° |
| 2026-05-05 22:13 | 51.34411 | -67.46766 | 28591 ft | 348 kts | 344° |
| 2026-05-05 22:14 | 51.39153 | -67.47288 | 28537 ft | 338 kts | 336° |
| 2026-05-05 22:14 | 51.43801 | -67.48244 | 28531 ft | 337 kts | 335° |
| 2026-05-05 22:15 | 51.48458 | -67.49205 | 28530 ft | 338 kts | 335° |
| 2026-05-05 22:15 | 51.53130 | -67.50131 | 28533 ft | 339 kts | 336° |
| 2026-05-05 22:16 | 51.57781 | -67.51033 | 28524 ft | 339 kts | 336° |
| 2026-05-05 22:16 | 51.62463 | -67.51932 | 28505 ft | 338 kts | 336° |
| 2026-05-05 22:17 | 51.67128 | -67.52819 | 28511 ft | 339 kts | 337° |
| 2026-05-05 22:17 | 51.71796 | -67.53723 | 28505 ft | 337 kts | 336° |
| 2026-05-05 22:18 | 51.76456 | -67.54636 | 28495 ft | 337 kts | 336° |
| 2026-05-05 22:18 | 51.81113 | -67.55540 | 28500 ft | 337 kts | 336° |
| 2026-05-05 22:19 | 51.85778 | -67.56453 | 28539 ft | 339 kts | 336° |
| 2026-05-05 22:19 | 51.90480 | -67.57375 | 28495 ft | 341 kts | 336° |
| 2026-05-05 22:20 | 51.95204 | -67.58292 | 28480 ft | 342 kts | 336° |
| 2026-05-05 22:20 | 51.99925 | -67.59209 | 28487 ft | 342 kts | 336° |
| 2026-05-05 22:21 | 52.04658 | -67.60136 | 28503 ft | 343 kts | 336° |
| 2026-05-05 22:21 | 52.09376 | -67.61064 | 28530 ft | 344 kts | 336° |
| 2026-05-05 22:22 | 52.14143 | -67.62001 | 28491 ft | 346 kts | 336° |
| 2026-05-05 22:22 | 52.18920 | -67.62943 | 28485 ft | 346 kts | 336° |
| 2026-05-05 22:23 | 52.23698 | -67.63885 | 28484 ft | 346 kts | 336° |
| 2026-05-05 22:23 | 52.28476 | -67.64831 | 28487 ft | 346 kts | 336° |
| 2026-05-05 22:24 | 52.33263 | -67.65783 | 28493 ft | 346 kts | 336° |
| 2026-05-05 22:24 | 52.38059 | -67.66752 | 28517 ft | 349 kts | 336° |
| 2026-05-05 22:25 | 52.42892 | -67.67709 | 28489 ft | 350 kts | 336° |
| 2026-05-05 22:25 | 52.47683 | -67.68659 | 28483 ft | 349 kts | 336° |
| 2026-05-05 22:26 | 52.52505 | -67.69622 | 28485 ft | 349 kts | 336° |
| 2026-05-05 22:26 | 52.57326 | -67.70590 | 28483 ft | 349 kts | 336° |
| 2026-05-05 22:27 | 52.62140 | -67.71559 | 28477 ft | 348 kts | 336° |
| 2026-05-05 22:27 | 52.66947 | -67.72527 | 28486 ft | 348 kts | 336° |
| 2026-05-05 22:28 | 52.71749 | -67.73498 | 28490 ft | 347 kts | 336° |
| 2026-05-05 22:28 | 52.76546 | -67.74470 | 28495 ft | 348 kts | 336° |
| 2026-05-05 22:29 | 52.81352 | -67.75447 | 28485 ft | 348 kts | 336° |
| 2026-05-05 22:29 | 52.86161 | -67.76425 | 28558 ft | 348 kts | 335° |
| 2026-05-05 22:30 | 52.90996 | -67.77424 | 28496 ft | 351 kts | 336° |
| 2026-05-05 22:30 | 52.95846 | -67.78417 | 28484 ft | 351 kts | 336° |
| 2026-05-05 22:31 | 53.00706 | -67.79403 | 28482 ft | 351 kts | 336° |
| 2026-05-05 22:31 | 53.05551 | -67.80396 | 28467 ft | 351 kts | 336° |
| 2026-05-05 22:32 | 53.10390 | -67.81391 | 28471 ft | 350 kts | 336° |
| 2026-05-05 22:32 | 53.15225 | -67.82390 | 28472 ft | 350 kts | 336° |
| 2026-05-05 22:33 | 53.20029 | -67.83387 | 28480 ft | 350 kts | 337° |
| 2026-05-05 22:33 | 53.24868 | -67.84386 | 28478 ft | 350 kts | 337° |
| 2026-05-05 22:34 | 53.29702 | -67.85387 | 28467 ft | 350 kts | 337° |
| 2026-05-05 22:34 | 53.34526 | -67.86392 | 28462 ft | 349 kts | 337° |
| 2026-05-05 22:35 | 53.39338 | -67.87396 | 28506 ft | 349 kts | 338° |
| 2026-05-05 22:35 | 53.44175 | -67.88410 | 28472 ft | 351 kts | 338° |
| 2026-05-05 22:36 | 53.49012 | -67.89438 | 28467 ft | 350 kts | 338° |
| 2026-05-05 22:36 | 53.53849 | -67.90445 | 28464 ft | 350 kts | 338° |
| 2026-05-05 22:37 | 53.58686 | -67.91458 | 28460 ft | 350 kts | 338° |
| 2026-05-05 22:37 | 53.63482 | -67.92470 | 28453 ft | 350 kts | 338° |
| 2026-05-05 22:38 | 53.68308 | -67.93493 | 28458 ft | 350 kts | 338° |
| 2026-05-05 22:38 | 53.73145 | -67.94530 | 28456 ft | 351 kts | 338° |
| 2026-05-05 22:39 | 53.78001 | -67.95564 | 28452 ft | 352 kts | 339° |
| 2026-05-05 22:39 | 53.82874 | -67.96611 | 28447 ft | 353 kts | 339° |
| 2026-05-05 22:40 | 53.87750 | -67.97638 | 28447 ft | 353 kts | 339° |
| 2026-05-05 22:40 | 53.92635 | -67.98676 | 28448 ft | 354 kts | 339° |
| 2026-05-05 22:41 | 53.97521 | -67.99716 | 28435 ft | 355 kts | 340° |
| 2026-05-05 22:41 | 54.02515 | -68.00200 | 28433 ft | 364 kts | 347° |
| 2026-05-05 22:42 | 54.07588 | -68.00184 | 28442 ft | 364 kts | 347° |
| 2026-05-05 22:42 | 54.12654 | -68.00225 | 28438 ft | 364 kts | 347° |
| 2026-05-05 22:43 | 54.17725 | -68.00250 | 28437 ft | 365 kts | 347° |
| 2026-05-05 22:43 | 54.22764 | -68.00253 | 28442 ft | 365 kts | 347° |
| 2026-05-05 22:44 | 54.27845 | -68.00251 | 28450 ft | 365 kts | 348° |
| 2026-05-05 22:44 | 54.32937 | -68.00256 | 28450 ft | 367 kts | 348° |
| 2026-05-05 22:45 | 54.38054 | -68.00256 | 28439 ft | 368 kts | 348° |
| 2026-05-05 22:45 | 54.43180 | -68.00254 | 28441 ft | 369 kts | 348° |
| 2026-05-05 22:46 | 54.48311 | -68.00254 | 28440 ft | 369 kts | 348° |
| 2026-05-05 22:46 | 54.53453 | -68.00262 | 28468 ft | 370 kts | 348° |
| 2026-05-05 22:47 | 54.58603 | -68.00278 | 28452 ft | 370 kts | 350° |
| 2026-05-05 22:47 | 54.62874 | -68.00260 | 28438 ft | 369 kts | 350° |
| 2026-05-05 22:48 | 54.67990 | -68.00246 | 28428 ft | 367 kts | 350° |
| 2026-05-05 22:48 | 54.73089 | -68.00242 | 28426 ft | 365 kts | 350° |
| 2026-05-05 22:49 | 54.78162 | -68.00244 | 28432 ft | 364 kts | 350° |
| 2026-05-05 22:49 | 54.83233 | -68.00247 | 28417 ft | 364 kts | 350° |
| 2026-05-05 22:50 | 54.88287 | -68.00256 | 28430 ft | 363 kts | 350° |
| 2026-05-05 22:50 | 54.93331 | -68.00254 | 28431 ft | 362 kts | 350° |
| 2026-05-05 22:51 | 54.98363 | -68.00253 | 28419 ft | 361 kts | 350° |
| 2026-05-05 22:51 | 55.03391 | -68.00255 | 28419 ft | 361 kts | 350° |
| 2026-05-05 22:52 | 55.08411 | -68.00256 | 28421 ft | 360 kts | 350° |
| 2026-05-05 22:52 | 55.13421 | -68.00264 | 28405 ft | 359 kts | 351° |
| 2026-05-05 22:53 | 55.18401 | -68.00260 | 28412 ft | 357 kts | 351° |
| 2026-05-05 22:53 | 55.23342 | -68.00257 | 28423 ft | 357 kts | 351° |
| 2026-05-05 22:54 | 55.28298 | -68.00228 | 28422 ft | 355 kts | 353° |
| 2026-05-05 22:54 | 55.33225 | -68.00243 | 28412 ft | 353 kts | 353° |
| 2026-05-05 22:55 | 55.38123 | -68.00251 | 28409 ft | 351 kts | 353° |
| 2026-05-05 22:55 | 55.42993 | -68.00255 | 28403 ft | 349 kts | 353° |
| 2026-05-05 22:56 | 55.47831 | -68.00257 | 28406 ft | 347 kts | 353° |
| 2026-05-05 22:56 | 55.52655 | -68.00260 | 28407 ft | 346 kts | 353° |
| 2026-05-05 22:57 | 55.57470 | -68.00262 | 28420 ft | 346 kts | 353° |
| 2026-05-05 22:57 | 55.62252 | -68.00265 | 28415 ft | 346 kts | 353° |
| 2026-05-05 22:58 | 55.67066 | -68.00266 | 28410 ft | 346 kts | 354° |
| 2026-05-05 22:58 | 55.71865 | -68.00264 | 28401 ft | 344 kts | 354° |
| 2026-05-05 22:59 | 55.76644 | -68.00263 | 28411 ft | 343 kts | 354° |
| 2026-05-05 22:59 | 55.81404 | -68.00265 | 28409 ft | 342 kts | 354° |
| 2026-05-05 23:00 | 55.88530 | -68.00250 | 28424 ft | 341 kts | 354° |
| 2026-05-05 23:00 | 55.93272 | -68.00258 | 28475 ft | 341 kts | 356° |
| 2026-05-05 23:01 | 55.98012 | -68.00254 | 28432 ft | 339 kts | 357° |
| 2026-05-05 23:01 | 56.02722 | -68.00317 | 28427 ft | 337 kts | 355° |
| 2026-05-05 23:02 | 56.07388 | -68.00645 | 28430 ft | 335 kts | 354° |
| 2026-05-05 23:02 | 56.12038 | -68.00992 | 28426 ft | 334 kts | 354° |
| 2026-05-05 23:03 | 56.16675 | -68.01309 | 28431 ft | 333 kts | 355° |
| 2026-05-05 23:03 | 56.21302 | -68.01612 | 28429 ft | 333 kts | 355° |
| 2026-05-05 23:04 | 56.25925 | -68.01900 | 28426 ft | 332 kts | 356° |
| 2026-05-05 23:04 | 56.30531 | -68.02197 | 28439 ft | 331 kts | 356° |
| 2026-05-05 23:05 | 56.35131 | -68.02495 | 28435 ft | 330 kts | 356° |
| 2026-05-05 23:05 | 56.39724 | -68.02792 | 28436 ft | 330 kts | 356° |
| 2026-05-05 23:06 | 56.44311 | -68.03088 | 28441 ft | 330 kts | 356° |
| 2026-05-05 23:06 | 56.48896 | -68.03384 | 28437 ft | 330 kts | 356° |
| 2026-05-05 23:07 | 56.53455 | -68.03684 | 28421 ft | 329 kts | 356° |
| 2026-05-05 23:07 | 56.58030 | -68.03981 | 28432 ft | 329 kts | 356° |
| 2026-05-05 23:08 | 56.62599 | -68.04266 | 28447 ft | 329 kts | 358° |
| 2026-05-05 23:08 | 56.67169 | -68.04562 | 28441 ft | 328 kts | 358° |
| 2026-05-05 23:09 | 56.71759 | -68.04856 | 28014 ft | 337 kts | 358° |
| 2026-05-05 23:09 | 56.74133 | -68.05005 | 27603 ft | 345 kts | 358° |
| 2026-05-05 23:09 | 56.76547 | -68.05157 | 27199 ft | 348 kts | 358° |
| 2026-05-05 23:10 | 56.78969 | -68.05310 | 26803 ft | 349 kts | 358° |
| 2026-05-05 23:10 | 56.81398 | -68.05465 | 26407 ft | 349 kts | 358° |
| 2026-05-05 23:10 | 56.83827 | -68.05620 | 26016 ft | 350 kts | 358° |
| 2026-05-05 23:10 | 56.86264 | -68.05775 | 25632 ft | 350 kts | 358° |
| 2026-05-05 23:11 | 56.88705 | -68.05931 | 25260 ft | 351 kts | 358° |
| 2026-05-05 23:11 | 56.91146 | -68.06087 | 24886 ft | 351 kts | 358° |
| 2026-05-05 23:11 | 56.93590 | -68.06242 | 24519 ft | 352 kts | 358° |
| 2026-05-05 23:11 | 56.96041 | -68.06398 | 24154 ft | 352 kts | 358° |
| 2026-05-05 23:12 | 56.98492 | -68.06553 | 23793 ft | 353 kts | 358° |
| 2026-05-05 23:12 | 57.00949 | -68.06709 | 23432 ft | 353 kts | 357° |
| 2026-05-05 23:12 | 57.03409 | -68.06865 | 23007 ft | 354 kts | 357° |
| 2026-05-05 23:12 | 57.05874 | -68.07020 | 22503 ft | 355 kts | 357° |
| 2026-05-05 23:13 | 57.08340 | -68.07174 | 22001 ft | 355 kts | 357° |
| 2026-05-05 23:13 | 57.10775 | -68.07325 | 21506 ft | 353 kts | 356° |
| 2026-05-05 23:13 | 57.13260 | -68.07503 | 21018 ft | 353 kts | 357° |
| 2026-05-05 23:13 | 57.15710 | -68.07648 | 20545 ft | 352 kts | 357° |
| 2026-05-05 23:14 | 57.18124 | -68.07791 | 20084 ft | 351 kts | 356° |
| 2026-05-05 23:14 | 57.20559 | -68.07943 | 19622 ft | 350 kts | 356° |
| 2026-05-05 23:14 | 57.22983 | -68.08098 | 19170 ft | 348 kts | 355° |
| 2026-05-05 23:14 | 57.25402 | -68.08258 | 18722 ft | 346 kts | 355° |
| 2026-05-05 23:15 | 57.27804 | -68.08383 | 18296 ft | 345 kts | 356° |
| 2026-05-05 23:15 | 57.30203 | -68.08529 | 17861 ft | 344 kts | 354° |
| 2026-05-05 23:15 | 57.32587 | -68.08710 | 17386 ft | 342 kts | 354° |
| 2026-05-05 23:15 | 57.34959 | -68.08893 | 16895 ft | 340 kts | 354° |
| 2026-05-05 23:16 | 57.37313 | -68.09065 | 16411 ft | 337 kts | 355° |
| 2026-05-05 23:16 | 57.39651 | -68.09222 | 15941 ft | 334 kts | 355° |
| 2026-05-05 23:16 | 57.41965 | -68.09377 | 15472 ft | 330 kts | 355° |
| 2026-05-05 23:16 | 57.44249 | -68.09525 | 15012 ft | 327 kts | 355° |
| 2026-05-05 23:17 | 57.46506 | -68.09678 | 14556 ft | 323 kts | 355° |
| 2026-05-05 23:17 | 57.48743 | -68.09830 | 14105 ft | 320 kts | 355° |
| 2026-05-05 23:17 | 57.50956 | -68.09980 | 13662 ft | 316 kts | 355° |
| 2026-05-05 23:17 | 57.53138 | -68.10131 | 13217 ft | 313 kts | 355° |
| 2026-05-05 23:18 | 57.55306 | -68.10278 | 12727 ft | 310 kts | 355° |
| 2026-05-05 23:18 | 57.57453 | -68.10428 | 12239 ft | 307 kts | 355° |
| 2026-05-05 23:18 | 57.59577 | -68.10579 | 11757 ft | 304 kts | 355° |
| 2026-05-05 23:18 | 57.61681 | -68.10730 | 11285 ft | 301 kts | 355° |
| 2026-05-05 23:19 | 57.63747 | -68.10856 | 10830 ft | 299 kts | 355° |
| 2026-05-05 23:19 | 57.65844 | -68.11010 | 10373 ft | 303 kts | 355° |
| 2026-05-05 23:19 | 57.67926 | -68.11150 | 9935 ft | 304 kts | 355° |
| 2026-05-05 23:19 | 57.70035 | -68.11283 | 9517 ft | 303 kts | 355° |
| 2026-05-05 23:20 | 57.72139 | -68.11418 | 9061 ft | 301 kts | 355° |
| 2026-05-05 23:20 | 57.74226 | -68.11556 | 8587 ft | 299 kts | 355° |
| 2026-05-05 23:20 | 57.76301 | -68.11694 | 8114 ft | 297 kts | 355° |
| 2026-05-05 23:20 | 57.78350 | -68.11833 | 7639 ft | 288 kts | 355° |
| 2026-05-05 23:21 | 57.80305 | -68.11923 | 7158 ft | 277 kts | 355° |
| 2026-05-05 23:21 | 57.82208 | -68.12062 | 6705 ft | 271 kts | 354° |
| 2026-05-05 23:21 | 57.84081 | -68.12201 | 6256 ft | 267 kts | 354° |
| 2026-05-05 23:21 | 57.85925 | -68.12340 | 5811 ft | 264 kts | 353° |
| 2026-05-05 23:22 | 57.87750 | -68.12479 | 5334 ft | 261 kts | 354° |
| 2026-05-05 23:22 | 57.89558 | -68.12607 | 4851 ft | 259 kts | 354° |
| 2026-05-05 23:22 | 57.91350 | -68.12731 | 4379 ft | 257 kts | 355° |
| 2026-05-05 23:22 | 57.93129 | -68.12857 | 3894 ft | 254 kts | 355° |
| 2026-05-05 23:23 | 57.94891 | -68.12980 | 3419 ft | 250 kts | 355° |
| 2026-05-05 23:23 | 57.96435 | -68.13025 | 2925 ft | 195 kts | 356° |
| 2026-05-05 23:23 | 57.97793 | -68.13144 | 2422 ft | 198 kts | 353° |
| 2026-05-05 23:23 | 57.99166 | -68.13064 | 2137 ft | 193 kts | 7° |
| 2026-05-05 23:24 | 58.00427 | -68.12568 | 2101 ft | 179 kts | 10° |
| 2026-05-05 23:24 | 58.01624 | -68.12116 | 2094 ft | 173 kts | 9° |
| 2026-05-05 23:24 | 58.02785 | -68.11665 | 2084 ft | 168 kts | 10° |
| 2026-05-05 23:24 | 58.03921 | -68.11208 | 1976 ft | 167 kts | 11° |
| 2026-05-05 23:25 | 58.05057 | -68.10840 | 1852 ft | 162 kts | 360° |
| 2026-05-05 23:25 | 58.06105 | -68.11320 | 1609 ft | 152 kts | 324° |
| 2026-05-05 23:25 | 58.06829 | -68.12676 | 1614 ft | 142 kts | 297° |
| 2026-05-05 23:25 | 58.07226 | -68.14315 | 1614 ft | 134 kts | 278° |
| 2026-05-05 23:26 | 58.07413 | -68.15998 | 1612 ft | 133 kts | 274° |
| 2026-05-05 23:26 | 58.07604 | -68.17726 | 1605 ft | 135 kts | 276° |
| 2026-05-05 23:26 | 58.07812 | -68.19466 | 1597 ft | 136 kts | 276° |
| 2026-05-05 23:26 | 58.08012 | -68.21204 | 1591 ft | 135 kts | 275° |
| 2026-05-05 23:27 | 58.08211 | -68.22944 | 1618 ft | 136 kts | 275° |
| 2026-05-05 23:27 | 58.08404 | -68.24693 | 1629 ft | 138 kts | 274° |
| 2026-05-05 23:27 | 58.08625 | -68.26465 | 1642 ft | 127 kts | 280° |
| 2026-05-05 23:27 | 58.08814 | -68.27867 | 1514 ft | 102 kts | 271° |
| 2026-05-05 23:28 | 58.08890 | -68.29193 | 1368 ft | 102 kts | 268° |
| 2026-05-05 23:28 | 58.09025 | -68.30523 | 1208 ft | 104 kts | 276° |
| 2026-05-05 23:28 | 58.09208 | -68.31852 | 1064 ft | 105 kts | 276° |
| 2026-05-05 23:28 | 58.09367 | -68.33197 | 900 ft | 105 kts | 276° |
| 2026-05-05 23:29 | 58.09519 | -68.34529 | 750 ft | 102 kts | 275° |
| 2026-05-05 23:29 | 58.09662 | -68.35842 | 635 ft | 102 kts | 275° |
| 2026-05-05 23:29 | 58.09815 | -68.37163 | 487 ft | 103 kts | 275° |
| 2026-05-05 23:29 | 58.09943 | -68.38481 | 372 ft | 102 kts | 275° |
| 2026-05-05 23:30 | 58.10084 | -68.39715 | 259 ft | 92 kts | 279° |
| 2026-05-05 23:30 | 58.10172 | -68.40508 | 154 ft | 93 kts | 277° |
| 2026-05-05 23:30 | 58.10306 | -68.41751 | 115 ft | 40 kts | 281° |
| 2026-05-05 23:30 | 58.10334 | -68.42050 | 114 ft | 16 kts | 309° |
| 2026-05-05 23:31 | 58.10330 | -68.41897 | 113 ft | 21 kts | 110° |
| 2026-05-05 23:31 | 58.10301 | -68.41742 | 115 ft | 4 kts | 176° |
| 2026-05-05 23:31 | 58.10227 | -68.41794 | 110 ft | 21 kts | 176° |
| 2026-05-05 23:31 | 58.10107 | -68.41747 | 105 ft | 17 kts | 166° |
| 2026-05-05 23:32 | 58.10006 | -68.41754 | 95 ft | 16 kts | 220° |
| 2026-05-05 23:32 | 58.09973 | -68.41924 | 95 ft | 16 kts | 294° |
| 2026-05-05 23:32 | 58.09975 | -68.42034 | 94 ft | 4 kts | 160° |
| 2026-05-05 23:32 | 58.09973 | -68.42031 | 94 ft | 0 kts | 132° |